sensor_id;sensor_type;location;lat;lon;timestamp;P1;durP1;ratioP1;P2;durP2;ratioP2
33792;SDS011;20105;48.764;9.178;2022-11-20T00:01:08;4.07;;;3.40;;
33792;SDS011;20105;48.764;9.178;2022-11-20T00:03:41;6.05;;;3.47;;
33792;SDS011;20105;48.764;9.178;2022-11-20T00:06:08;3.70;;;2.63;;
33792;SDS011;20105;48.764;9.178;2022-11-20T00:08:36;4.10;;;2.67;;
33792;SDS011;20105;48.764;9.178;2022-11-20T00:11:10;3.35;;;3.00;;
33792;SDS011;20105;48.764;9.178;2022-11-20T00:13:38;3.15;;;2.63;;
33792;SDS011;20105;48.764;9.178;2022-11-20T00:16:04;4.30;;;2.60;;
33792;SDS011;20105;48.764;9.178;2022-11-20T00:18:32;3.90;;;3.28;;
33792;SDS011;20105;48.764;9.178;2022-11-20T00:21:02;2.80;;;2.60;;
33792;SDS011;20105;48.764;9.178;2022-11-20T00:23:29;3.65;;;2.45;;
33792;SDS011;20105;48.764;9.178;2022-11-20T00:25:55;3.28;;;2.70;;
33792;SDS011;20105;48.764;9.178;2022-11-20T00:28:20;2.93;;;2.63;;
33792;SDS011;20105;48.764;9.178;2022-11-20T00:30:46;2.90;;;2.57;;
33792;SDS011;20105;48.764;9.178;2022-11-20T00:33:11;3.20;;;2.43;;
33792;SDS011;20105;48.764;9.178;2022-11-20T00:35:37;4.10;;;2.23;;
33792;SDS011;20105;48.764;9.178;2022-11-20T00:38:02;3.90;;;2.40;;
33792;SDS011;20105;48.764;9.178;2022-11-20T00:40:28;2.80;;;2.40;;
33792;SDS011;20105;48.764;9.178;2022-11-20T00:42:54;3.27;;;2.50;;
33792;SDS011;20105;48.764;9.178;2022-11-20T00:45:19;2.07;;;1.90;;
33792;SDS011;20105;48.764;9.178;2022-11-20T00:47:45;2.50;;;2.27;;
33792;SDS011;20105;48.764;9.178;2022-11-20T00:50:10;2.33;;;2.13;;
33792;SDS011;20105;48.764;9.178;2022-11-20T00:52:36;1.40;;;1.33;;
33792;SDS011;20105;48.764;9.178;2022-11-20T00:55:01;2.13;;;2.03;;
33792;SDS011;20105;48.764;9.178;2022-11-20T00:57:27;1.80;;;1.70;;
33792;SDS011;20105;48.764;9.178;2022-11-20T00:59:52;6.00;;;2.30;;
33792;SDS011;20105;48.764;9.178;2022-11-20T01:02:18;2.33;;;2.13;;
33792;SDS011;20105;48.764;9.178;2022-11-20T01:04:44;4.80;;;2.83;;
33792;SDS011;20105;48.764;9.178;2022-11-20T01:07:09;2.57;;;2.37;;
33792;SDS011;20105;48.764;9.178;2022-11-20T01:09:35;3.43;;;2.57;;
33792;SDS011;20105;48.764;9.178;2022-11-20T01:12:00;10.23;;;2.40;;
33792;SDS011;20105;48.764;9.178;2022-11-20T01:14:26;1.60;;;1.50;;
33792;SDS011;20105;48.764;9.178;2022-11-20T01:16:51;2.77;;;2.53;;
33792;SDS011;20105;48.764;9.178;2022-11-20T01:19:18;3.03;;;2.20;;
33792;SDS011;20105;48.764;9.178;2022-11-20T01:21:47;2.90;;;2.05;;
33792;SDS011;20105;48.764;9.178;2022-11-20T01:24:14;2.20;;;2.00;;
33792;SDS011;20105;48.764;9.178;2022-11-20T01:26:42;2.92;;;2.10;;
33792;SDS011;20105;48.764;9.178;2022-11-20T01:29:10;2.17;;;1.30;;
33792;SDS011;20105;48.764;9.178;2022-11-20T01:31:39;3.35;;;2.30;;
33792;SDS011;20105;48.764;9.178;2022-11-20T01:34:06;2.23;;;1.60;;
33792;SDS011;20105;48.764;9.178;2022-11-20T01:36:34;2.08;;;1.45;;
33792;SDS011;20105;48.764;9.178;2022-11-20T01:39:03;1.63;;;1.00;;
33792;SDS011;20105;48.764;9.178;2022-11-20T01:41:35;2.22;;;1.40;;
33792;SDS011;20105;48.764;9.178;2022-11-20T01:44:20;1.30;;;1.30;;
33792;SDS011;20105;48.764;9.178;2022-11-20T01:46:51;1.73;;;1.63;;
33792;SDS011;20105;48.764;9.178;2022-11-20T01:49:40;1.60;;;1.50;;
33792;SDS011;20105;48.764;9.178;2022-11-20T01:52:21;1.60;;;1.50;;
33792;SDS011;20105;48.764;9.178;2022-11-20T01:55:09;2.75;;;1.70;;
33792;SDS011;20105;48.764;9.178;2022-11-20T01:57:34;1.80;;;1.70;;
33792;SDS011;20105;48.764;9.178;2022-11-20T02:00:06;5.10;;;2.00;;
33792;SDS011;20105;48.764;9.178;2022-11-20T02:02:36;2.50;;;1.92;;
33792;SDS011;20105;48.764;9.178;2022-11-20T02:05:07;2.35;;;2.15;;
33792;SDS011;20105;48.764;9.178;2022-11-20T02:07:53;3.03;;;2.83;;
33792;SDS011;20105;48.764;9.178;2022-11-20T02:10:21;3.65;;;3.35;;
33792;SDS011;20105;48.764;9.178;2022-11-20T02:12:47;6.30;;;2.50;;
33792;SDS011;20105;48.764;9.178;2022-11-20T02:15:32;1.77;;;1.67;;
33792;SDS011;20105;48.764;9.178;2022-11-20T02:17:58;5.10;;;2.30;;
33792;SDS011;20105;48.764;9.178;2022-11-20T02:20:24;3.50;;;2.87;;
33792;SDS011;20105;48.764;9.178;2022-11-20T02:22:54;1.90;;;1.80;;
33792;SDS011;20105;48.764;9.178;2022-11-20T02:25:24;2.20;;;2.10;;
33792;SDS011;20105;48.764;9.178;2022-11-20T02:27:52;1.77;;;1.67;;
33792;SDS011;20105;48.764;9.178;2022-11-20T02:30:17;2.00;;;1.90;;
33792;SDS011;20105;48.764;9.178;2022-11-20T02:32:43;2.13;;;2.00;;
33792;SDS011;20105;48.764;9.178;2022-11-20T02:37:44;2.20;;;2.00;;
33792;SDS011;20105;48.764;9.178;2022-11-20T02:40:11;1.98;;;1.83;;
33792;SDS011;20105;48.764;9.178;2022-11-20T02:42:37;2.43;;;1.87;;
33792;SDS011;20105;48.764;9.178;2022-11-20T02:45:03;2.60;;;1.97;;
33792;SDS011;20105;48.764;9.178;2022-11-20T02:47:30;3.15;;;2.60;;
33792;SDS011;20105;48.764;9.178;2022-11-20T02:49:56;2.97;;;2.27;;
33792;SDS011;20105;48.764;9.178;2022-11-20T02:52:21;2.40;;;2.20;;
33792;SDS011;20105;48.764;9.178;2022-11-20T02:54:47;3.63;;;2.23;;
33792;SDS011;20105;48.764;9.178;2022-11-20T02:57:12;3.53;;;2.50;;
33792;SDS011;20105;48.764;9.178;2022-11-20T02:59:38;1.80;;;1.37;;
33792;SDS011;20105;48.764;9.178;2022-11-20T03:02:03;2.20;;;1.90;;
33792;SDS011;20105;48.764;9.178;2022-11-20T03:04:30;2.28;;;2.17;;
33792;SDS011;20105;48.764;9.178;2022-11-20T03:06:56;2.50;;;2.40;;
33792;SDS011;20105;48.764;9.178;2022-11-20T03:09:21;2.70;;;2.50;;
33792;SDS011;20105;48.764;9.178;2022-11-20T03:11:47;2.40;;;2.17;;
33792;SDS011;20105;48.764;9.178;2022-11-20T03:14:13;2.30;;;2.00;;
33792;SDS011;20105;48.764;9.178;2022-11-20T03:16:39;3.65;;;2.50;;
33792;SDS011;20105;48.764;9.178;2022-11-20T03:19:04;3.13;;;2.23;;
33792;SDS011;20105;48.764;9.178;2022-11-20T03:21:30;3.83;;;2.73;;
33792;SDS011;20105;48.764;9.178;2022-11-20T03:23:58;4.00;;;2.00;;
33792;SDS011;20105;48.764;9.178;2022-11-20T03:26:24;2.80;;;2.50;;
33792;SDS011;20105;48.764;9.178;2022-11-20T03:31:18;4.35;;;2.85;;
33792;SDS011;20105;48.764;9.178;2022-11-20T03:33:45;2.40;;;2.20;;
33792;SDS011;20105;48.764;9.178;2022-11-20T03:36:12;2.90;;;2.70;;
33792;SDS011;20105;48.764;9.178;2022-11-20T03:38:39;2.40;;;2.20;;
33792;SDS011;20105;48.764;9.178;2022-11-20T03:41:06;2.45;;;2.25;;
33792;SDS011;20105;48.764;9.178;2022-11-20T03:43:35;3.38;;;2.53;;
33792;SDS011;20105;48.764;9.178;2022-11-20T03:46:01;2.53;;;2.15;;
33792;SDS011;20105;48.764;9.178;2022-11-20T03:48:27;2.80;;;2.60;;
33792;SDS011;20105;48.764;9.178;2022-11-20T03:50:53;3.80;;;3.40;;
33792;SDS011;20105;48.764;9.178;2022-11-20T03:53:32;5.43;;;2.95;;
33792;SDS011;20105;48.764;9.178;2022-11-20T03:55:57;2.77;;;2.50;;
33792;SDS011;20105;48.764;9.178;2022-11-20T03:58:23;1.97;;;1.87;;
33792;SDS011;20105;48.764;9.178;2022-11-20T04:00:48;2.93;;;2.53;;
33792;SDS011;20105;48.764;9.178;2022-11-20T04:03:14;4.13;;;2.50;;
33792;SDS011;20105;48.764;9.178;2022-11-20T04:05:40;7.50;;;2.57;;
33792;SDS011;20105;48.764;9.178;2022-11-20T04:08:05;1.77;;;1.50;;
33792;SDS011;20105;48.764;9.178;2022-11-20T04:10:31;3.47;;;2.27;;
33792;SDS011;20105;48.764;9.178;2022-11-20T04:12:56;3.17;;;2.73;;
33792;SDS011;20105;48.764;9.178;2022-11-20T04:15:22;2.33;;;1.63;;
33792;SDS011;20105;48.764;9.178;2022-11-20T04:17:47;2.57;;;2.37;;
33792;SDS011;20105;48.764;9.178;2022-11-20T04:20:13;2.13;;;1.80;;
33792;SDS011;20105;48.764;9.178;2022-11-20T04:22:39;2.05;;;1.85;;
33792;SDS011;20105;48.764;9.178;2022-11-20T04:25:05;5.73;;;3.00;;
33792;SDS011;20105;48.764;9.178;2022-11-20T04:27:30;3.03;;;2.57;;
33792;SDS011;20105;48.764;9.178;2022-11-20T04:29:56;3.17;;;2.87;;
33792;SDS011;20105;48.764;9.178;2022-11-20T04:32:22;3.17;;;2.80;;
33792;SDS011;20105;48.764;9.178;2022-11-20T04:34:47;3.23;;;2.50;;
33792;SDS011;20105;48.764;9.178;2022-11-20T04:37:13;2.77;;;1.70;;
33792;SDS011;20105;48.764;9.178;2022-11-20T04:39:38;1.83;;;1.60;;
33792;SDS011;20105;48.764;9.178;2022-11-20T04:42:04;2.47;;;2.23;;
33792;SDS011;20105;48.764;9.178;2022-11-20T04:44:48;3.55;;;2.60;;
33792;SDS011;20105;48.764;9.178;2022-11-20T04:47:13;1.63;;;1.53;;
33792;SDS011;20105;48.764;9.178;2022-11-20T04:49:39;2.80;;;2.30;;
33792;SDS011;20105;48.764;9.178;2022-11-20T04:52:05;3.03;;;2.73;;
33792;SDS011;20105;48.764;9.178;2022-11-20T04:54:30;4.73;;;2.03;;
33792;SDS011;20105;48.764;9.178;2022-11-20T04:56:56;2.70;;;1.83;;
33792;SDS011;20105;48.764;9.178;2022-11-20T04:59:21;2.93;;;2.70;;
33792;SDS011;20105;48.764;9.178;2022-11-20T05:01:47;2.40;;;2.20;;
33792;SDS011;20105;48.764;9.178;2022-11-20T05:04:13;2.50;;;2.27;;
33792;SDS011;20105;48.764;9.178;2022-11-20T05:06:38;3.67;;;2.37;;
33792;SDS011;20105;48.764;9.178;2022-11-20T05:09:04;3.10;;;2.37;;
33792;SDS011;20105;48.764;9.178;2022-11-20T05:11:31;4.53;;;2.53;;
33792;SDS011;20105;48.764;9.178;2022-11-20T05:13:57;3.10;;;2.55;;
33792;SDS011;20105;48.764;9.178;2022-11-20T05:16:24;2.25;;;2.05;;
33792;SDS011;20105;48.764;9.178;2022-11-20T05:18:51;2.80;;;2.60;;
33792;SDS011;20105;48.764;9.178;2022-11-20T05:21:17;2.20;;;2.00;;
33792;SDS011;20105;48.764;9.178;2022-11-20T05:23:43;4.00;;;2.87;;
33792;SDS011;20105;48.764;9.178;2022-11-20T05:26:14;6.72;;;2.88;;
33792;SDS011;20105;48.764;9.178;2022-11-20T05:28:41;3.17;;;2.85;;
33792;SDS011;20105;48.764;9.178;2022-11-20T05:31:08;2.10;;;1.95;;
33792;SDS011;20105;48.764;9.178;2022-11-20T05:33:36;2.75;;;2.55;;
33792;SDS011;20105;48.764;9.178;2022-11-20T05:36:02;2.83;;;2.63;;
33792;SDS011;20105;48.764;9.178;2022-11-20T05:38:29;3.95;;;2.47;;
33792;SDS011;20105;48.764;9.178;2022-11-20T05:40:54;2.20;;;2.00;;
33792;SDS011;20105;48.764;9.178;2022-11-20T05:43:20;2.30;;;2.10;;
33792;SDS011;20105;48.764;9.178;2022-11-20T05:45:52;3.30;;;2.73;;
33792;SDS011;20105;48.764;9.178;2022-11-20T05:48:19;2.30;;;2.20;;
33792;SDS011;20105;48.764;9.178;2022-11-20T05:50:45;3.60;;;2.50;;
33792;SDS011;20105;48.764;9.178;2022-11-20T05:53:10;2.10;;;2.00;;
33792;SDS011;20105;48.764;9.178;2022-11-20T05:55:36;3.57;;;2.80;;
33792;SDS011;20105;48.764;9.178;2022-11-20T05:58:01;3.70;;;2.30;;
33792;SDS011;20105;48.764;9.178;2022-11-20T06:00:27;2.37;;;2.20;;
33792;SDS011;20105;48.764;9.178;2022-11-20T06:02:52;2.13;;;1.83;;
33792;SDS011;20105;48.764;9.178;2022-11-20T06:05:18;2.97;;;2.67;;
33792;SDS011;20105;48.764;9.178;2022-11-20T06:07:43;2.57;;;2.37;;
33792;SDS011;20105;48.764;9.178;2022-11-20T06:10:09;2.67;;;2.47;;
33792;SDS011;20105;48.764;9.178;2022-11-20T06:12:35;1.60;;;1.50;;
33792;SDS011;20105;48.764;9.178;2022-11-20T06:15:00;2.57;;;2.37;;
33792;SDS011;20105;48.764;9.178;2022-11-20T06:17:26;2.20;;;2.00;;
33792;SDS011;20105;48.764;9.178;2022-11-20T06:19:52;2.73;;;2.00;;
33792;SDS011;20105;48.764;9.178;2022-11-20T06:22:17;3.67;;;2.60;;
33792;SDS011;20105;48.764;9.178;2022-11-20T06:24:43;4.80;;;2.37;;
33792;SDS011;20105;48.764;9.178;2022-11-20T06:27:08;2.10;;;1.90;;
33792;SDS011;20105;48.764;9.178;2022-11-20T06:29:34;4.30;;;2.00;;
33792;SDS011;20105;48.764;9.178;2022-11-20T06:31:59;3.90;;;2.53;;
33792;SDS011;20105;48.764;9.178;2022-11-20T06:34:26;2.30;;;2.10;;
33792;SDS011;20105;48.764;9.178;2022-11-20T06:36:51;1.93;;;1.40;;
33792;SDS011;20105;48.764;9.178;2022-11-20T06:39:17;1.20;;;1.20;;
33792;SDS011;20105;48.764;9.178;2022-11-20T06:41:42;1.97;;;1.83;;
33792;SDS011;20105;48.764;9.178;2022-11-20T06:44:08;1.93;;;1.80;;
33792;SDS011;20105;48.764;9.178;2022-11-20T06:46:33;1.87;;;1.70;;
33792;SDS011;20105;48.764;9.178;2022-11-20T06:48:59;2.57;;;1.43;;
33792;SDS011;20105;48.764;9.178;2022-11-20T06:51:24;3.20;;;2.03;;
33792;SDS011;20105;48.764;9.178;2022-11-20T06:53:50;1.23;;;1.20;;
33792;SDS011;20105;48.764;9.178;2022-11-20T06:56:15;1.43;;;1.33;;
33792;SDS011;20105;48.764;9.178;2022-11-20T06:58:41;2.13;;;1.50;;
33792;SDS011;20105;48.764;9.178;2022-11-20T07:01:08;1.60;;;1.43;;
33792;SDS011;20105;48.764;9.178;2022-11-20T07:03:35;2.28;;;2.08;;
33792;SDS011;20105;48.764;9.178;2022-11-20T07:06:02;2.08;;;1.88;;
33792;SDS011;20105;48.764;9.178;2022-11-20T07:08:28;2.47;;;2.25;;
33792;SDS011;20105;48.764;9.178;2022-11-20T07:10:58;1.50;;;1.40;;
33792;SDS011;20105;48.764;9.178;2022-11-20T07:13:25;2.47;;;2.22;;
33792;SDS011;20105;48.764;9.178;2022-11-20T07:15:52;2.20;;;1.60;;
33792;SDS011;20105;48.764;9.178;2022-11-20T07:18:17;1.67;;;1.57;;
33792;SDS011;20105;48.764;9.178;2022-11-20T07:20:43;4.50;;;1.53;;
33792;SDS011;20105;48.764;9.178;2022-11-20T07:23:08;1.60;;;1.50;;
33792;SDS011;20105;48.764;9.178;2022-11-20T07:25:34;1.40;;;1.37;;
33792;SDS011;20105;48.764;9.178;2022-11-20T07:28:00;1.57;;;1.47;;
33792;SDS011;20105;48.764;9.178;2022-11-20T07:30:26;1.90;;;1.20;;
33792;SDS011;20105;48.764;9.178;2022-11-20T07:32:53;1.75;;;1.40;;
33792;SDS011;20105;48.764;9.178;2022-11-20T07:35:22;1.60;;;1.50;;
33792;SDS011;20105;48.764;9.178;2022-11-20T07:37:49;2.08;;;1.88;;
33792;SDS011;20105;48.764;9.178;2022-11-20T07:40:15;1.67;;;1.57;;
33792;SDS011;20105;48.764;9.178;2022-11-20T07:42:48;2.50;;;1.67;;
33792;SDS011;20105;48.764;9.178;2022-11-20T07:45:15;2.50;;;1.90;;
33792;SDS011;20105;48.764;9.178;2022-11-20T07:47:40;2.70;;;1.30;;
33792;SDS011;20105;48.764;9.178;2022-11-20T07:50:06;1.70;;;1.60;;
33792;SDS011;20105;48.764;9.178;2022-11-20T07:52:32;1.75;;;1.25;;
33792;SDS011;20105;48.764;9.178;2022-11-20T07:54:58;2.13;;;1.93;;
33792;SDS011;20105;48.764;9.178;2022-11-20T07:57:23;5.50;;;1.60;;
33792;SDS011;20105;48.764;9.178;2022-11-20T07:59:49;1.30;;;1.20;;
33792;SDS011;20105;48.764;9.178;2022-11-20T08:02:14;1.60;;;1.50;;
33792;SDS011;20105;48.764;9.178;2022-11-20T08:04:40;1.70;;;1.60;;
33792;SDS011;20105;48.764;9.178;2022-11-20T08:07:05;1.47;;;1.37;;
33792;SDS011;20105;48.764;9.178;2022-11-20T08:09:31;1.67;;;1.57;;
33792;SDS011;20105;48.764;9.178;2022-11-20T08:11:57;3.35;;;1.63;;
33792;SDS011;20105;48.764;9.178;2022-11-20T08:14:41;1.35;;;1.25;;
33792;SDS011;20105;48.764;9.178;2022-11-20T08:17:07;1.33;;;1.23;;
33792;SDS011;20105;48.764;9.178;2022-11-20T08:19:32;1.57;;;1.47;;
33792;SDS011;20105;48.764;9.178;2022-11-20T08:21:58;4.40;;;2.00;;
33792;SDS011;20105;48.764;9.178;2022-11-20T08:24:23;6.60;;;1.30;;
33792;SDS011;20105;48.764;9.178;2022-11-20T08:26:51;2.80;;;1.45;;
33792;SDS011;20105;48.764;9.178;2022-11-20T08:29:17;2.03;;;1.83;;
33792;SDS011;20105;48.764;9.178;2022-11-20T08:31:42;0.93;;;0.93;;
33792;SDS011;20105;48.764;9.178;2022-11-20T08:34:08;0.60;;;0.57;;
33792;SDS011;20105;48.764;9.178;2022-11-20T08:36:33;1.20;;;1.10;;
33792;SDS011;20105;48.764;9.178;2022-11-20T08:39:00;1.30;;;1.30;;
33792;SDS011;20105;48.764;9.178;2022-11-20T08:41:25;1.30;;;1.20;;
33792;SDS011;20105;48.764;9.178;2022-11-20T08:46:23;1.00;;;0.90;;
33792;SDS011;20105;48.764;9.178;2022-11-20T08:48:51;3.25;;;1.52;;
33792;SDS011;20105;48.764;9.178;2022-11-20T08:51:17;2.78;;;1.08;;
33792;SDS011;20105;48.764;9.178;2022-11-20T08:53:44;1.20;;;1.10;;
33792;SDS011;20105;48.764;9.178;2022-11-20T08:56:10;1.10;;;1.10;;
33792;SDS011;20105;48.764;9.178;2022-11-20T08:58:36;0.93;;;0.90;;
33792;SDS011;20105;48.764;9.178;2022-11-20T09:01:02;0.80;;;0.80;;
33792;SDS011;20105;48.764;9.178;2022-11-20T09:03:28;1.50;;;1.17;;
33792;SDS011;20105;48.764;9.178;2022-11-20T09:05:58;1.47;;;1.33;;
33792;SDS011;20105;48.764;9.178;2022-11-20T09:08:25;0.70;;;0.70;;
33792;SDS011;20105;48.764;9.178;2022-11-20T09:10:53;0.90;;;0.90;;
33792;SDS011;20105;48.764;9.178;2022-11-20T09:13:19;0.88;;;0.85;;
33792;SDS011;20105;48.764;9.178;2022-11-20T09:15:45;0.95;;;0.95;;
33792;SDS011;20105;48.764;9.178;2022-11-20T09:18:11;2.50;;;1.20;;
33792;SDS011;20105;48.764;9.178;2022-11-20T09:20:38;1.13;;;1.10;;
33792;SDS011;20105;48.764;9.178;2022-11-20T09:23:03;0.93;;;0.87;;
33792;SDS011;20105;48.764;9.178;2022-11-20T09:25:29;0.90;;;0.80;;
33792;SDS011;20105;48.764;9.178;2022-11-20T09:27:55;1.50;;;0.90;;
33792;SDS011;20105;48.764;9.178;2022-11-20T09:30:21;1.25;;;1.15;;
33792;SDS011;20105;48.764;9.178;2022-11-20T09:32:47;0.70;;;0.70;;
33792;SDS011;20105;48.764;9.178;2022-11-20T09:35:12;4.73;;;0.77;;
33792;SDS011;20105;48.764;9.178;2022-11-20T09:37:39;1.60;;;1.02;;
33792;SDS011;20105;48.764;9.178;2022-11-20T09:40:05;1.00;;;0.90;;
33792;SDS011;20105;48.764;9.178;2022-11-20T09:42:42;0.60;;;0.60;;
33792;SDS011;20105;48.764;9.178;2022-11-20T09:48:16;0.50;;;0.50;;
33792;SDS011;20105;48.764;9.178;2022-11-20T09:51:09;0.50;;;0.50;;
33792;SDS011;20105;48.764;9.178;2022-11-20T09:56:39;1.10;;;1.00;;
33792;SDS011;20105;48.764;9.178;2022-11-20T09:59:07;0.60;;;0.60;;
33792;SDS011;20105;48.764;9.178;2022-11-20T10:01:49;1.10;;;1.00;;
33792;SDS011;20105;48.764;9.178;2022-11-20T10:04:19;1.27;;;0.83;;
33792;SDS011;20105;48.764;9.178;2022-11-20T10:09:36;0.75;;;0.60;;
33792;SDS011;20105;48.764;9.178;2022-11-20T10:14:47;2.28;;;1.40;;
33792;SDS011;20105;48.764;9.178;2022-11-20T10:20:38;1.08;;;0.98;;
33792;SDS011;20105;48.764;9.178;2022-11-20T10:23:18;0.82;;;0.82;;
33792;SDS011;20105;48.764;9.178;2022-11-20T10:26:03;0.80;;;0.80;;
33792;SDS011;20105;48.764;9.178;2022-11-20T10:31:28;1.02;;;0.70;;
33792;SDS011;20105;48.764;9.178;2022-11-20T10:34:12;1.65;;;1.00;;
33792;SDS011;20105;48.764;9.178;2022-11-20T10:36:44;0.70;;;0.70;;
33792;SDS011;20105;48.764;9.178;2022-11-20T10:39:25;1.10;;;0.73;;
33792;SDS011;20105;48.764;9.178;2022-11-20T10:42:20;1.20;;;0.60;;
33792;SDS011;20105;48.764;9.178;2022-11-20T10:45:13;1.20;;;1.20;;
33792;SDS011;20105;48.764;9.178;2022-11-20T10:47:58;1.20;;;1.02;;
33792;SDS011;20105;48.764;9.178;2022-11-20T10:53:40;1.27;;;1.08;;
33792;SDS011;20105;48.764;9.178;2022-11-20T10:56:35;1.50;;;0.95;;
33792;SDS011;20105;48.764;9.178;2022-11-20T11:01:55;0.95;;;0.95;;
33792;SDS011;20105;48.764;9.178;2022-11-20T11:06:58;0.93;;;0.63;;
33792;SDS011;20105;48.764;9.178;2022-11-20T11:09:32;0.98;;;0.85;;
33792;SDS011;20105;48.764;9.178;2022-11-20T11:12:05;0.75;;;0.75;;
33792;SDS011;20105;48.764;9.178;2022-11-20T11:14:45;3.92;;;1.02;;
33792;SDS011;20105;48.764;9.178;2022-11-20T11:17:26;1.27;;;1.15;;
33792;SDS011;20105;48.764;9.178;2022-11-20T11:22:43;0.90;;;0.90;;
33792;SDS011;20105;48.764;9.178;2022-11-20T11:25:18;1.50;;;1.30;;
33792;SDS011;20105;48.764;9.178;2022-11-20T11:28:19;1.00;;;1.00;;
33792;SDS011;20105;48.764;9.178;2022-11-20T11:30:46;0.90;;;0.90;;
33792;SDS011;20105;48.764;9.178;2022-11-20T11:33:19;1.23;;;1.15;;
33792;SDS011;20105;48.764;9.178;2022-11-20T11:35:50;3.13;;;1.60;;
33792;SDS011;20105;48.764;9.178;2022-11-20T11:38:22;1.05;;;0.90;;
33792;SDS011;20105;48.764;9.178;2022-11-20T11:40:52;1.00;;;0.98;;
33792;SDS011;20105;48.764;9.178;2022-11-20T11:43:20;1.88;;;1.77;;
33792;SDS011;20105;48.764;9.178;2022-11-20T11:52:18;0.95;;;0.93;;
33792;SDS011;20105;48.764;9.178;2022-11-20T11:57:19;1.35;;;0.70;;
33792;SDS011;20105;48.764;9.178;2022-11-20T11:59:51;0.70;;;0.70;;
33792;SDS011;20105;48.764;9.178;2022-11-20T12:02:32;3.13;;;0.90;;
33792;SDS011;20105;48.764;9.178;2022-11-20T12:13:12;1.48;;;1.27;;
33792;SDS011;20105;48.764;9.178;2022-11-20T12:15:55;1.85;;;1.02;;
33792;SDS011;20105;48.764;9.178;2022-11-20T12:18:21;2.07;;;0.90;;
33792;SDS011;20105;48.764;9.178;2022-11-20T12:21:10;3.58;;;1.35;;
33792;SDS011;20105;48.764;9.178;2022-11-20T12:24:03;2.05;;;1.95;;
33792;SDS011;20105;48.764;9.178;2022-11-20T12:27:05;1.80;;;1.13;;
33792;SDS011;20105;48.764;9.178;2022-11-20T12:32:52;0.80;;;0.80;;
33792;SDS011;20105;48.764;9.178;2022-11-20T12:38:26;1.80;;;0.77;;
33792;SDS011;20105;48.764;9.178;2022-11-20T12:41:09;1.13;;;1.02;;
33792;SDS011;20105;48.764;9.178;2022-11-20T12:44:26;0.70;;;0.70;;
33792;SDS011;20105;48.764;9.178;2022-11-20T12:50:09;0.90;;;0.47;;
33792;SDS011;20105;48.764;9.178;2022-11-20T12:52:53;0.75;;;0.75;;
33792;SDS011;20105;48.764;9.178;2022-11-20T12:55:45;0.85;;;0.60;;
33792;SDS011;20105;48.764;9.178;2022-11-20T13:00:58;1.03;;;0.80;;
33792;SDS011;20105;48.764;9.178;2022-11-20T13:03:39;0.50;;;0.40;;
33792;SDS011;20105;48.764;9.178;2022-11-20T13:06:17;0.82;;;0.68;;
33792;SDS011;20105;48.764;9.178;2022-11-20T13:08:47;1.55;;;0.82;;
33792;SDS011;20105;48.764;9.178;2022-11-20T13:11:37;0.68;;;0.63;;
33792;SDS011;20105;48.764;9.178;2022-11-20T13:16:57;3.45;;;1.17;;
33792;SDS011;20105;48.764;9.178;2022-11-20T13:19:34;3.90;;;1.08;;
33792;SDS011;20105;48.764;9.178;2022-11-20T13:22:00;1.63;;;0.60;;
33792;SDS011;20105;48.764;9.178;2022-11-20T13:24:27;2.03;;;1.17;;
33792;SDS011;20105;48.764;9.178;2022-11-20T13:29:29;0.70;;;0.50;;
33792;SDS011;20105;48.764;9.178;2022-11-20T13:32:03;2.25;;;0.77;;
33792;SDS011;20105;48.764;9.178;2022-11-20T13:34:31;0.50;;;0.50;;
33792;SDS011;20105;48.764;9.178;2022-11-20T13:36:57;0.98;;;0.52;;
33792;SDS011;20105;48.764;9.178;2022-11-20T13:39:29;0.57;;;0.57;;
33792;SDS011;20105;48.764;9.178;2022-11-20T13:41:58;3.80;;;1.30;;
33792;SDS011;20105;48.764;9.178;2022-11-20T13:44:37;1.25;;;1.15;;
33792;SDS011;20105;48.764;9.178;2022-11-20T13:47:17;0.88;;;0.52;;
33792;SDS011;20105;48.764;9.178;2022-11-20T13:49:47;3.67;;;1.17;;
33792;SDS011;20105;48.764;9.178;2022-11-20T13:55:40;1.95;;;0.90;;
33792;SDS011;20105;48.764;9.178;2022-11-20T14:01:23;5.20;;;0.68;;
33792;SDS011;20105;48.764;9.178;2022-11-20T14:03:51;0.70;;;0.60;;
33792;SDS011;20105;48.764;9.178;2022-11-20T14:06:30;1.13;;;0.80;;
33792;SDS011;20105;48.764;9.178;2022-11-20T14:08:59;0.90;;;0.80;;
33792;SDS011;20105;48.764;9.178;2022-11-20T14:11:25;0.52;;;0.52;;
33792;SDS011;20105;48.764;9.178;2022-11-20T14:21:45;4.82;;;0.95;;
33792;SDS011;20105;48.764;9.178;2022-11-20T14:24:21;0.80;;;0.80;;
33792;SDS011;20105;48.764;9.178;2022-11-20T14:26:48;1.83;;;0.77;;
33792;SDS011;20105;48.764;9.178;2022-11-20T14:29:27;0.73;;;0.70;;
33792;SDS011;20105;48.764;9.178;2022-11-20T14:31:59;1.30;;;1.00;;
33792;SDS011;20105;48.764;9.178;2022-11-20T14:34:26;2.45;;;1.13;;
33792;SDS011;20105;48.764;9.178;2022-11-20T14:36:59;6.10;;;3.75;;
33792;SDS011;20105;48.764;9.178;2022-11-20T14:41:59;3.03;;;1.70;;
33792;SDS011;20105;48.764;9.178;2022-11-20T14:44:29;3.33;;;0.97;;
33792;SDS011;20105;48.764;9.178;2022-11-20T14:46:57;1.48;;;1.23;;
33792;SDS011;20105;48.764;9.178;2022-11-20T14:49:25;3.80;;;2.20;;
33792;SDS011;20105;48.764;9.178;2022-11-20T14:52:09;2.40;;;1.38;;
33792;SDS011;20105;48.764;9.178;2022-11-20T14:54:43;2.00;;;0.63;;
33792;SDS011;20105;48.764;9.178;2022-11-20T14:57:45;1.90;;;1.20;;
33792;SDS011;20105;48.764;9.178;2022-11-20T15:02:40;1.00;;;1.00;;
33792;SDS011;20105;48.764;9.178;2022-11-20T15:05:07;1.30;;;1.10;;
33792;SDS011;20105;48.764;9.178;2022-11-20T15:07:40;0.90;;;0.90;;
33792;SDS011;20105;48.764;9.178;2022-11-20T15:17:59;0.80;;;0.80;;
33792;SDS011;20105;48.764;9.178;2022-11-20T15:20:26;4.37;;;2.03;;
33792;SDS011;20105;48.764;9.178;2022-11-20T15:22:55;1.38;;;1.10;;
33792;SDS011;20105;48.764;9.178;2022-11-20T15:25:20;1.37;;;1.27;;
33792;SDS011;20105;48.764;9.178;2022-11-20T15:27:46;2.10;;;1.10;;
33792;SDS011;20105;48.764;9.178;2022-11-20T15:30:19;1.00;;;0.90;;
33792;SDS011;20105;48.764;9.178;2022-11-20T15:32:46;1.90;;;1.13;;
33792;SDS011;20105;48.764;9.178;2022-11-20T15:35:12;2.15;;;1.50;;
33792;SDS011;20105;48.764;9.178;2022-11-20T15:37:39;1.30;;;1.20;;
33792;SDS011;20105;48.764;9.178;2022-11-20T15:40:05;2.38;;;1.02;;
33792;SDS011;20105;48.764;9.178;2022-11-20T15:42:32;2.03;;;1.35;;
33792;SDS011;20105;48.764;9.178;2022-11-20T15:45:00;1.30;;;1.20;;
33792;SDS011;20105;48.764;9.178;2022-11-20T15:47:29;2.90;;;1.63;;
33792;SDS011;20105;48.764;9.178;2022-11-20T15:49:59;3.70;;;1.00;;
33792;SDS011;20105;48.764;9.178;2022-11-20T15:52:24;2.10;;;1.20;;
33792;SDS011;20105;48.764;9.178;2022-11-20T15:54:50;3.80;;;1.63;;
33792;SDS011;20105;48.764;9.178;2022-11-20T15:57:18;2.60;;;0.97;;
33792;SDS011;20105;48.764;9.178;2022-11-20T15:59:43;1.58;;;1.30;;
33792;SDS011;20105;48.764;9.178;2022-11-20T16:02:12;1.53;;;1.23;;
33792;SDS011;20105;48.764;9.178;2022-11-20T16:04:40;3.08;;;1.52;;
33792;SDS011;20105;48.764;9.178;2022-11-20T16:07:07;1.67;;;1.25;;
33792;SDS011;20105;48.764;9.178;2022-11-20T16:09:32;1.90;;;1.43;;
33792;SDS011;20105;48.764;9.178;2022-11-20T16:11:58;2.47;;;1.70;;
33792;SDS011;20105;48.764;9.178;2022-11-20T16:14:24;4.82;;;1.73;;
33792;SDS011;20105;48.764;9.178;2022-11-20T16:17:09;1.77;;;1.35;;
33792;SDS011;20105;48.764;9.178;2022-11-20T16:19:35;2.70;;;1.30;;
33792;SDS011;20105;48.764;9.178;2022-11-20T16:22:00;3.73;;;1.63;;
33792;SDS011;20105;48.764;9.178;2022-11-20T16:24:26;1.73;;;1.27;;
33792;SDS011;20105;48.764;9.178;2022-11-20T16:26:55;1.90;;;1.80;;
33792;SDS011;20105;48.764;9.178;2022-11-20T16:29:20;1.55;;;1.45;;
33792;SDS011;20105;48.764;9.178;2022-11-20T16:31:46;1.60;;;1.50;;
33792;SDS011;20105;48.764;9.178;2022-11-20T16:34:12;1.60;;;1.50;;
33792;SDS011;20105;48.764;9.178;2022-11-20T16:36:41;3.93;;;1.30;;
33792;SDS011;20105;48.764;9.178;2022-11-20T16:39:08;3.40;;;2.55;;